createdAt,value
2023-03-31T00:01:00.693Z,0.57
2023-03-31T00:03:29.467Z,0.22
2023-03-31T00:05:58.402Z,0.75
2023-03-31T00:08:30.357Z,0.55
2023-03-31T00:11:01.774Z,1.10
2023-03-31T00:13:31.465Z,1.85
2023-03-31T00:16:00.454Z,0.77
2023-03-31T00:18:29.988Z,0.55
2023-03-31T00:21:02.478Z,0.30
2023-03-31T00:23:31.605Z,0.50
2023-03-31T00:26:01.300Z,0.70
2023-03-31T00:28:29.587Z,0.82
2023-03-31T00:31:02.224Z,0.70
2023-03-31T00:33:30.838Z,0.45
2023-03-31T00:36:06.449Z,0.77
2023-03-31T00:38:35.710Z,0.80
2023-03-31T00:41:06.499Z,0.80
2023-03-31T00:43:35.799Z,0.90
2023-03-31T00:46:07.320Z,0.70
2023-03-31T00:48:38.612Z,0.80
2023-03-31T00:51:08.823Z,0.88
2023-03-31T00:53:38.949Z,0.80
2023-03-31T00:56:13.410Z,0.90
2023-03-31T00:58:43.921Z,0.55
2023-03-31T01:01:15.513Z,0.75
2023-03-31T01:03:46.827Z,0.75
2023-03-31T01:06:16.860Z,0.73
2023-03-31T01:08:45.534Z,0.77
2023-03-31T01:11:17.124Z,0.60
2023-03-31T01:13:45.989Z,1.35
2023-03-31T01:16:14.442Z,0.98
2023-03-31T01:18:46.537Z,0.63
2023-03-31T01:21:34.612Z,0.50
2023-03-31T01:24:18.514Z,1.13
2023-03-31T01:27:05.251Z,0.30
2023-03-31T01:29:51.842Z,1.50
2023-03-31T01:32:31.834Z,1.55
2023-03-31T01:35:10.688Z,0.95
2023-03-31T01:37:57.356Z,0.95
2023-03-31T01:40:55.739Z,0.82
2023-03-31T01:43:28.320Z,1.15
2023-03-31T01:45:59.387Z,0.90
2023-03-31T01:48:36.716Z,0.90
2023-03-31T01:51:07.464Z,1.27
2023-03-31T01:53:37.883Z,0.80
2023-03-31T01:56:09.279Z,0.85
2023-03-31T01:58:40.776Z,0.73
2023-03-31T02:01:16.066Z,0.80
2023-03-31T02:03:48.654Z,1.13
2023-03-31T02:06:19.681Z,1.48
2023-03-31T02:08:49.573Z,0.82
2023-03-31T02:11:18.141Z,1.42
2023-03-31T02:13:49.136Z,0.82
2023-03-31T02:16:19.138Z,1.05
2023-03-31T02:18:50.097Z,1.60
2023-03-31T02:21:18.709Z,0.93
2023-03-31T02:23:47.208Z,1.35
2023-03-31T02:26:17.252Z,1.00
2023-03-31T02:28:45.736Z,1.10
2023-03-31T02:31:23.625Z,0.98
2023-03-31T02:33:52.097Z,0.70
2023-03-31T02:36:21.487Z,0.65
2023-03-31T02:38:52.141Z,1.27
2023-03-31T02:41:20.466Z,0.85
2023-03-31T02:43:48.720Z,1.83
2023-03-31T02:46:18.433Z,0.82
2023-03-31T02:48:50.103Z,2.78
2023-03-31T02:51:27.437Z,0.95
2023-03-31T02:54:06.357Z,1.15
2023-03-31T02:56:44.321Z,1.65
2023-03-31T02:59:26.775Z,2.60
2023-03-31T03:02:04.447Z,1.50
2023-03-31T03:04:39.290Z,1.50
2023-03-31T03:07:10.093Z,1.65
2023-03-31T03:09:45.978Z,1.70
2023-03-31T03:12:18.397Z,2.13
2023-03-31T03:14:49.147Z,1.38
2023-03-31T03:17:23.104Z,1.20
2023-03-31T03:19:53.189Z,1.70
2023-03-31T03:22:21.469Z,0.95
2023-03-31T03:24:49.782Z,1.48
2023-03-31T03:27:18.074Z,0.98
2023-03-31T03:29:47.579Z,0.63
2023-03-31T03:32:16.013Z,1.27
2023-03-31T03:34:45.660Z,1.02
2023-03-31T03:37:13.984Z,1.30
2023-03-31T03:39:42.317Z,1.27
2023-03-31T03:42:10.591Z,1.45
2023-03-31T03:44:38.881Z,1.70
2023-03-31T03:47:07.293Z,1.23
2023-03-31T03:49:35.644Z,1.80
2023-03-31T03:52:05.425Z,1.65
2023-03-31T03:54:33.903Z,0.65
2023-03-31T03:57:02.402Z,1.00
2023-03-31T03:59:30.774Z,1.50
2023-03-31T04:01:59.090Z,1.08
2023-03-31T04:04:27.470Z,0.90
2023-03-31T04:06:55.826Z,1.02
2023-03-31T04:09:25.567Z,1.60
2023-03-31T04:11:53.839Z,1.13
2023-03-31T04:14:22.150Z,0.63
2023-03-31T04:16:50.461Z,0.70
2023-03-31T04:19:18.864Z,1.15
2023-03-31T04:21:50.817Z,1.27
2023-03-31T04:24:21.979Z,1.65
2023-03-31T04:26:51.736Z,1.48
2023-03-31T04:29:22.813Z,0.95
2023-03-31T04:31:52.703Z,0.90
2023-03-31T04:34:22.206Z,1.58
2023-03-31T04:36:50.503Z,1.02
2023-03-31T04:39:24.431Z,1.15
2023-03-31T04:41:54.110Z,1.38
2023-03-31T04:44:22.400Z,1.10
2023-03-31T04:46:50.810Z,1.00
2023-03-31T04:49:19.107Z,1.05
2023-03-31T04:51:47.392Z,1.10
2023-03-31T04:54:15.728Z,1.35
2023-03-31T04:56:44.356Z,0.95
2023-03-31T04:59:14.167Z,1.15
2023-03-31T05:01:45.065Z,1.20
2023-03-31T05:04:13.612Z,1.60
2023-03-31T05:06:41.947Z,1.58
2023-03-31T05:09:10.672Z,1.65
2023-03-31T05:11:39.229Z,0.85
2023-03-31T05:14:07.582Z,1.40
2023-03-31T05:16:37.453Z,1.10
2023-03-31T05:19:05.874Z,1.13
2023-03-31T05:21:34.183Z,1.42
2023-03-31T05:24:03.141Z,1.15
2023-03-31T05:26:31.439Z,1.30
2023-03-31T05:28:59.801Z,0.88
2023-03-31T05:31:28.215Z,1.17
2023-03-31T05:33:57.943Z,1.25
2023-03-31T05:36:27.258Z,1.10
2023-03-31T05:38:55.676Z,1.05
2023-03-31T05:41:23.970Z,1.27
2023-03-31T05:43:52.306Z,1.42
2023-03-31T05:46:20.661Z,1.27
2023-03-31T05:48:49.083Z,1.38
2023-03-31T05:51:18.754Z,1.52
2023-03-31T05:53:47.118Z,1.60
2023-03-31T05:56:15.398Z,1.17
2023-03-31T05:58:43.722Z,1.25
2023-03-31T06:01:12.867Z,1.08
2023-03-31T06:03:42.375Z,1.90
2023-03-31T06:06:12.986Z,2.28
2023-03-31T06:08:43.033Z,1.25
2023-03-31T06:11:12.068Z,1.15
2023-03-31T06:13:40.928Z,2.75
2023-03-31T06:16:09.564Z,1.55
2023-03-31T06:18:37.911Z,1.25
2023-03-31T06:21:06.442Z,1.23
2023-03-31T06:23:35.953Z,2.10
2023-03-31T06:26:08.256Z,1.67
2023-03-31T06:28:36.772Z,2.13
2023-03-31T06:31:06.018Z,1.60
2023-03-31T06:33:34.497Z,1.20
2023-03-31T06:36:05.618Z,1.35
2023-03-31T06:38:34.415Z,1.33
2023-03-31T06:41:02.967Z,1.67
2023-03-31T06:43:32.710Z,1.70
2023-03-31T06:46:01.415Z,1.90
2023-03-31T06:48:29.801Z,1.25
2023-03-31T06:51:00.643Z,0.93
2023-03-31T06:53:28.948Z,1.40
2023-03-31T06:55:57.234Z,1.48
2023-03-31T06:58:26.353Z,1.17
2023-03-31T07:00:56.891Z,1.45
2023-03-31T07:03:25.570Z,1.25
2023-03-31T07:05:54.699Z,1.40
2023-03-31T07:08:23.424Z,1.30
2023-03-31T07:10:52.591Z,0.98
2023-03-31T07:13:21.256Z,0.88
2023-03-31T07:15:50.131Z,1.48
2023-03-31T07:18:20.147Z,0.70
2023-03-31T07:20:50.562Z,0.80
2023-03-31T07:23:19.015Z,1.20
2023-03-31T07:25:48.353Z,1.60
2023-03-31T07:28:16.685Z,1.25
2023-03-31T07:30:45.061Z,1.30
2023-03-31T07:33:13.565Z,1.52
2023-03-31T07:35:43.667Z,1.30
2023-03-31T07:38:12.352Z,1.35
2023-03-31T07:40:41.702Z,1.27
2023-03-31T07:43:10.143Z,1.75
2023-03-31T07:45:40.975Z,1.67
2023-03-31T07:48:09.389Z,1.10
2023-03-31T07:50:37.762Z,1.40
2023-03-31T07:53:07.797Z,1.83
2023-03-31T07:55:36.146Z,1.42
2023-03-31T07:58:04.598Z,1.25
2023-03-31T08:00:32.930Z,1.63
2023-03-31T08:03:01.347Z,1.92
2023-03-31T08:05:29.997Z,1.85
2023-03-31T08:07:58.375Z,0.95
2023-03-31T08:10:28.695Z,1.38
2023-03-31T08:12:57.526Z,0.57
2023-03-31T08:15:25.969Z,1.55
2023-03-31T08:17:54.380Z,0.88
2023-03-31T08:20:22.770Z,1.15
2023-03-31T08:22:51.602Z,1.38
2023-03-31T08:25:21.187Z,1.35
2023-03-31T08:27:51.521Z,1.63
2023-03-31T08:30:20.638Z,2.17
2023-03-31T08:32:49.139Z,2.42
2023-03-31T08:35:17.509Z,2.20
2023-03-31T08:37:45.903Z,1.55
2023-03-31T08:40:16.644Z,1.48
2023-03-31T08:42:47.559Z,1.17
2023-03-31T08:45:20.751Z,1.60
2023-03-31T08:47:49.761Z,1.27
2023-03-31T08:50:20.775Z,1.20
2023-03-31T08:52:52.291Z,1.00
2023-03-31T08:55:24.239Z,1.08
2023-03-31T08:57:57.693Z,1.10
2023-03-31T09:00:27.484Z,1.17
2023-03-31T09:03:02.373Z,0.95
2023-03-31T09:06:00.111Z,1.27
2023-03-31T09:08:34.628Z,1.25
2023-03-31T09:11:08.097Z,1.20
2023-03-31T09:13:50.106Z,1.02
2023-03-31T09:16:24.059Z,0.95
2023-03-31T09:18:53.906Z,0.55
2023-03-31T09:21:24.491Z,1.10
2023-03-31T09:23:57.251Z,1.23
2023-03-31T09:26:28.420Z,0.77
2023-03-31T09:28:59.530Z,0.75
2023-03-31T09:31:30.147Z,0.90
2023-03-31T09:34:01.607Z,0.73
2023-03-31T09:36:30.199Z,0.52
2023-03-31T09:38:58.566Z,0.80
2023-03-31T09:41:27.055Z,0.80
2023-03-31T09:43:55.432Z,1.02
2023-03-31T09:46:28.227Z,0.80
2023-03-31T09:49:01.986Z,1.48
2023-03-31T09:51:32.815Z,1.08
2023-03-31T09:54:04.509Z,0.98
2023-03-31T09:56:48.753Z,0.82
2023-03-31T09:59:18.654Z,0.90
2023-03-31T10:01:48.395Z,0.43
2023-03-31T10:04:21.602Z,0.63
2023-03-31T10:06:50.540Z,0.80
2023-03-31T10:09:18.897Z,0.50
2023-03-31T10:11:55.102Z,0.50
2023-03-31T10:14:27.351Z,0.70
2023-03-31T10:16:56.470Z,0.60
2023-03-31T10:19:28.016Z,0.90
2023-03-31T10:22:00.818Z,0.50
2023-03-31T10:24:37.892Z,0.93
2023-03-31T10:27:07.533Z,1.17
2023-03-31T10:29:36.367Z,0.90
2023-03-31T10:32:06.581Z,0.63
2023-03-31T10:34:37.000Z,0.70
2023-03-31T10:37:05.946Z,0.65
2023-03-31T10:39:34.511Z,0.82
2023-03-31T10:42:03.008Z,0.65
2023-03-31T10:44:36.885Z,0.98
2023-03-31T10:47:06.760Z,0.65
2023-03-31T10:49:40.905Z,0.40
2023-03-31T10:52:18.486Z,0.80
2023-03-31T10:54:54.844Z,0.75
2023-03-31T10:57:26.421Z,0.75
2023-03-31T11:00:05.113Z,0.77
2023-03-31T11:02:43.243Z,0.90
2023-03-31T11:05:17.273Z,1.02
2023-03-31T11:07:52.214Z,0.65
2023-03-31T11:12:51.946Z,0.55
2023-03-31T11:15:23.700Z,0.68
2023-03-31T11:17:59.716Z,0.50
2023-03-31T11:20:32.616Z,1.23
2023-03-31T11:23:04.204Z,0.60
2023-03-31T11:25:36.426Z,0.80
2023-03-31T11:28:16.025Z,0.75
2023-03-31T11:30:48.482Z,0.32
2023-03-31T11:33:28.749Z,0.30
2023-03-31T11:36:05.374Z,0.30
2023-03-31T11:38:45.939Z,0.10
2023-03-31T11:41:16.409Z,0.93
2023-03-31T11:43:45.570Z,0.50
2023-03-31T11:46:15.494Z,0.30
2023-03-31T11:48:46.091Z,0.50
2023-03-31T11:51:18.351Z,0.40
2023-03-31T11:53:48.856Z,0.20
2023-03-31T11:56:18.586Z,0.50
2023-03-31T11:58:48.438Z,0.45
2023-03-31T12:01:18.844Z,0.30
2023-03-31T12:03:51.776Z,0.40
2023-03-31T12:06:23.456Z,0.50
2023-03-31T12:08:56.276Z,0.30
2023-03-31T12:11:28.830Z,0.20
2023-03-31T12:14:01.448Z,0.50
2023-03-31T12:16:33.719Z,0.50
2023-03-31T12:19:04.443Z,0.68
2023-03-31T12:21:35.844Z,0.70
2023-03-31T12:24:05.407Z,0.35
2023-03-31T12:26:40.412Z,0.38
2023-03-31T12:29:14.542Z,0.47
2023-03-31T12:31:44.932Z,0.40
2023-03-31T12:34:14.975Z,0.25
2023-03-31T12:36:55.290Z,0.50
2023-03-31T12:39:33.153Z,0.35
2023-03-31T12:42:07.758Z,0.40
2023-03-31T12:44:40.601Z,0.50
2023-03-31T12:47:34.451Z,0.20
2023-03-31T12:50:16.371Z,0.32
2023-03-31T12:52:49.723Z,0.45
2023-03-31T12:55:25.221Z,0.30
2023-03-31T12:57:53.623Z,0.32
2023-03-31T13:00:26.842Z,0.73
2023-03-31T13:03:10.024Z,0.82
2023-03-31T13:05:49.228Z,0.70
2023-03-31T13:08:53.571Z,0.30
2023-03-31T13:11:23.945Z,0.20
2023-03-31T13:14:00.931Z,0.88
2023-03-31T13:16:29.844Z,0.60
2023-03-31T13:18:58.519Z,0.30
2023-03-31T13:21:27.016Z,0.55
2023-03-31T13:23:55.857Z,0.55
2023-03-31T13:26:42.106Z,0.13
2023-03-31T13:29:24.936Z,0.32
2023-03-31T13:32:11.189Z,1.10
2023-03-31T13:34:42.993Z,0.32
2023-03-31T13:37:16.607Z,0.20
2023-03-31T13:39:53.719Z,0.10
2023-03-31T13:42:34.123Z,0.30
2023-03-31T13:45:06.457Z,0.25
2023-03-31T13:47:48.523Z,1.20
2023-03-31T13:50:19.275Z,0.45
2023-03-31T13:52:54.118Z,0.15
2023-03-31T13:55:52.315Z,0.40
2023-03-31T13:58:35.583Z,0.10
2023-03-31T14:01:20.004Z,0.30
2023-03-31T14:03:57.219Z,0.30
2023-03-31T14:06:27.898Z,0.00
2023-03-31T14:08:57.407Z,0.20
2023-03-31T14:11:26.458Z,0.43
2023-03-31T14:14:03.492Z,0.10
2023-03-31T14:16:34.191Z,0.10
2023-03-31T14:19:09.353Z,0.20
2023-03-31T14:24:11.212Z,0.15
2023-03-31T14:26:48.064Z,0.25
2023-03-31T14:29:22.073Z,0.20
2023-03-31T14:31:55.550Z,0.25
2023-03-31T14:34:48.159Z,0.10
2023-03-31T14:37:17.753Z,0.28
2023-03-31T14:39:47.884Z,0.20
2023-03-31T14:42:18.223Z,0.20
2023-03-31T14:44:48.658Z,0.30
2023-03-31T14:47:17.770Z,0.25
2023-03-31T14:49:46.231Z,0.28
2023-03-31T14:52:16.843Z,0.38
2023-03-31T14:54:47.536Z,0.20
2023-03-31T14:57:18.676Z,0.20
2023-03-31T14:59:49.770Z,0.20
2023-03-31T15:02:19.727Z,0.20
2023-03-31T15:04:49.795Z,0.15
2023-03-31T15:07:18.498Z,0.08
2023-03-31T15:09:50.340Z,0.10
2023-03-31T15:12:19.882Z,0.00
2023-03-31T15:14:51.084Z,0.10
2023-03-31T15:17:20.778Z,0.13
2023-03-31T15:19:54.372Z,0.25
2023-03-31T15:22:24.495Z,0.17
2023-03-31T15:24:52.873Z,0.00
2023-03-31T15:27:33.959Z,0.20
2023-03-31T15:30:07.546Z,0.20
2023-03-31T15:32:37.715Z,1.27
2023-03-31T15:37:56.937Z,0.50
2023-03-31T15:40:27.140Z,0.30
2023-03-31T15:43:06.417Z,0.40
2023-03-31T15:45:53.425Z,0.10
2023-03-31T15:48:23.715Z,0.20
2023-03-31T15:50:53.264Z,0.30
2023-03-31T15:53:27.466Z,0.20
2023-03-31T15:55:56.987Z,0.30
2023-03-31T15:58:28.380Z,0.30
2023-03-31T16:01:04.865Z,0.10
2023-03-31T16:03:38.489Z,0.38
2023-03-31T16:06:10.164Z,0.20
2023-03-31T16:08:39.591Z,0.65
2023-03-31T16:11:11.060Z,0.22
2023-03-31T16:13:40.246Z,0.47
2023-03-31T16:16:11.017Z,0.45
2023-03-31T16:18:41.847Z,0.40
2023-03-31T16:21:10.843Z,0.68
2023-03-31T16:23:41.170Z,0.30
2023-03-31T16:26:09.814Z,0.68
2023-03-31T16:28:39.060Z,0.35
2023-03-31T16:31:07.838Z,0.30
2023-03-31T16:33:51.026Z,0.20
2023-03-31T16:36:20.757Z,0.25
2023-03-31T16:38:49.125Z,0.77
2023-03-31T16:41:17.484Z,0.40
2023-03-31T16:43:46.914Z,0.60
2023-03-31T16:46:15.422Z,0.20
2023-03-31T16:48:43.924Z,0.25
2023-03-31T16:51:12.345Z,0.32
2023-03-31T16:53:42.432Z,0.20
2023-03-31T16:56:11.870Z,0.40
2023-03-31T16:58:40.718Z,0.13
2023-03-31T17:01:09.445Z,0.20
2023-03-31T17:03:38.445Z,0.10
2023-03-31T17:06:07.938Z,0.10
2023-03-31T17:08:38.025Z,0.25
2023-03-31T17:11:10.970Z,0.10
2023-03-31T17:13:39.866Z,0.22
2023-03-31T17:16:16.507Z,0.10
2023-03-31T17:18:47.302Z,0.10
2023-03-31T17:21:18.472Z,0.00
2023-03-31T17:23:47.462Z,0.25
2023-03-31T17:26:17.856Z,0.15
2023-03-31T17:28:46.352Z,0.15
2023-03-31T17:31:15.102Z,0.30
2023-03-31T17:33:44.165Z,0.10
2023-03-31T17:36:12.894Z,0.10
2023-03-31T17:38:41.960Z,0.10
2023-03-31T17:41:11.203Z,0.10
2023-03-31T17:43:40.876Z,0.28
2023-03-31T17:46:11.898Z,0.00
2023-03-31T17:48:40.910Z,0.38
2023-03-31T17:51:09.785Z,0.10
2023-03-31T17:53:38.250Z,0.00
2023-03-31T17:56:06.860Z,0.30
2023-03-31T17:58:35.229Z,0.10
2023-03-31T18:01:07.109Z,0.10
2023-03-31T18:03:36.309Z,0.20
2023-03-31T18:06:06.499Z,0.15
2023-03-31T18:08:35.093Z,0.17
2023-03-31T18:11:05.062Z,0.17
2023-03-31T18:13:33.699Z,0.10
2023-03-31T18:16:02.616Z,0.10
2023-03-31T18:18:32.668Z,0.10
2023-03-31T18:21:04.618Z,0.10
2023-03-31T18:23:33.746Z,0.03
2023-03-31T18:26:02.239Z,0.10
2023-03-31T18:28:30.545Z,0.20
2023-03-31T18:30:58.897Z,0.20
2023-03-31T18:33:27.298Z,0.10
2023-03-31T18:35:58.470Z,0.20
2023-03-31T18:38:27.125Z,0.30
2023-03-31T18:40:55.633Z,0.20
2023-03-31T18:43:26.005Z,0.65
2023-03-31T18:45:55.058Z,0.10
2023-03-31T18:48:24.133Z,0.10
2023-03-31T18:50:52.874Z,0.38
2023-03-31T18:53:23.188Z,0.82
2023-03-31T18:55:51.707Z,0.05
2023-03-31T18:58:20.190Z,0.10
2023-03-31T19:00:48.736Z,0.13
2023-03-31T19:03:17.553Z,0.10
2023-03-31T19:05:45.893Z,0.40
2023-03-31T19:08:22.226Z,0.20
2023-03-31T19:10:50.541Z,0.10
2023-03-31T19:13:18.861Z,0.10
2023-03-31T19:15:47.252Z,0.28
2023-03-31T19:18:16.548Z,0.55
2023-03-31T19:20:44.879Z,0.10
2023-03-31T19:23:13.170Z,0.40
2023-03-31T19:25:42.906Z,0.25
2023-03-31T19:28:11.208Z,0.35
2023-03-31T19:30:39.578Z,0.22
2023-03-31T19:33:08.485Z,1.33
2023-03-31T19:35:36.938Z,0.20
2023-03-31T19:38:05.328Z,0.10
2023-03-31T19:40:33.658Z,0.10
2023-03-31T19:43:03.323Z,0.20
2023-03-31T19:45:31.922Z,0.13
2023-03-31T19:48:00.386Z,0.57
2023-03-31T19:50:28.759Z,0.10
2023-03-31T19:52:57.083Z,0.13
2023-03-31T19:55:25.745Z,0.20
2023-03-31T19:57:54.200Z,0.30
2023-03-31T20:00:24.180Z,0.10
2023-03-31T20:02:52.631Z,0.20
2023-03-31T20:05:21.182Z,0.55
2023-03-31T20:07:49.523Z,0.22
2023-03-31T20:10:17.966Z,0.10
2023-03-31T20:12:46.410Z,0.10
2023-03-31T20:15:14.737Z,0.20
2023-03-31T20:17:44.696Z,0.40
2023-03-31T20:20:13.654Z,0.10
2023-03-31T20:22:42.180Z,0.20
2023-03-31T20:25:10.796Z,0.22
2023-03-31T20:27:39.319Z,0.57
2023-03-31T20:30:09.192Z,0.20
2023-03-31T20:32:37.538Z,0.10
2023-03-31T20:35:07.816Z,0.10
2023-03-31T20:37:36.392Z,0.20
2023-03-31T20:40:05.801Z,0.10
2023-03-31T20:42:34.727Z,0.15
2023-03-31T20:45:03.129Z,0.17
2023-03-31T20:47:33.300Z,0.10
2023-03-31T20:50:01.654Z,0.20
2023-03-31T20:52:31.394Z,0.10
2023-03-31T20:54:59.676Z,0.10
2023-03-31T20:57:28.013Z,0.10
2023-03-31T20:59:57.242Z,0.45
2023-03-31T21:02:25.625Z,0.55
2023-03-31T21:04:53.934Z,0.28
2023-03-31T21:07:22.713Z,0.10
2023-03-31T21:09:52.520Z,0.30
2023-03-31T21:12:20.848Z,0.20
2023-03-31T21:14:49.126Z,0.30
2023-03-31T21:17:17.423Z,0.10
2023-03-31T21:19:45.766Z,0.10
2023-03-31T21:22:14.086Z,0.10
2023-03-31T21:24:42.365Z,0.10
2023-03-31T21:27:12.046Z,0.32
2023-03-31T21:29:40.439Z,0.30
2023-03-31T21:32:09.112Z,0.25
2023-03-31T21:34:37.484Z,0.10
2023-03-31T21:37:06.713Z,0.20
2023-03-31T21:39:35.001Z,0.05
2023-03-31T21:42:03.380Z,0.45
2023-03-31T21:44:33.065Z,0.10
2023-03-31T21:47:01.378Z,0.10
2023-03-31T21:49:29.758Z,0.10
2023-03-31T21:51:59.053Z,0.93
2023-03-31T21:54:27.345Z,0.00
2023-03-31T21:56:55.648Z,0.20
2023-03-31T21:59:24.027Z,0.10
2023-03-31T22:01:53.734Z,0.35
2023-03-31T22:04:22.286Z,0.10
2023-03-31T22:06:50.632Z,0.10
2023-03-31T22:09:18.939Z,0.17
2023-03-31T22:11:47.226Z,0.28
2023-03-31T22:14:15.548Z,0.10
2023-03-31T22:16:43.934Z,0.95
2023-03-31T22:19:14.108Z,0.00
2023-03-31T22:21:43.873Z,0.55
2023-03-31T22:24:14.382Z,0.28
2023-03-31T22:26:42.765Z,0.45
2023-03-31T22:29:14.408Z,0.10
2023-03-31T22:31:42.773Z,0.10
2023-03-31T22:34:11.123Z,0.20
2023-03-31T22:36:40.867Z,0.20
2023-03-31T22:39:10.316Z,0.10
2023-03-31T22:41:38.648Z,0.10
2023-03-31T22:44:06.990Z,0.10
2023-03-31T22:46:35.706Z,0.10
2023-03-31T22:49:04.387Z,0.00
2023-03-31T22:51:32.789Z,0.10
2023-03-31T22:54:02.437Z,0.10
2023-03-31T22:56:30.993Z,0.20
2023-03-31T22:58:59.311Z,0.10
2023-03-31T23:01:27.984Z,0.10
2023-03-31T23:03:56.708Z,0.20
2023-03-31T23:06:25.099Z,0.20
2023-03-31T23:08:53.463Z,0.17
2023-03-31T23:11:23.141Z,0.10
2023-03-31T23:13:51.448Z,0.10
2023-03-31T23:16:20.779Z,0.20
2023-03-31T23:18:49.963Z,0.35
2023-03-31T23:21:20.092Z,0.10
2023-03-31T23:23:50.139Z,0.10
2023-03-31T23:26:19.122Z,0.00
2023-03-31T23:28:49.381Z,0.10
2023-03-31T23:31:17.720Z,0.28
2023-03-31T23:33:47.242Z,0.30
2023-03-31T23:36:17.638Z,0.20
2023-03-31T23:38:47.066Z,0.40
2023-03-31T23:41:15.960Z,0.10
2023-03-31T23:43:44.676Z,0.10
2023-03-31T23:46:14.508Z,0.10
2023-03-31T23:48:42.888Z,0.10
2023-03-31T23:51:11.292Z,0.10
2023-03-31T23:53:39.598Z,0.10
2023-03-31T23:56:08.888Z,0.17
2023-03-31T23:58:37.523Z,0.25
